OJAI/AMM METAR and TAF weather

Enter ICAO airport designator
Station Type Date Time Source
OJAI METAR 2023/01/30 11:00 UTC NOAA

OJAI 301100Z 26014KT 5000 HZ BKN025 14/04 Q1011 NOSIG


Station Type Date Time Source
OJAI Decoded METAR 2023/01/30 11:00 UTC NOAA

Queen Alia Airport, Jordan (OJAI) 31-40N 035-58E
Jan 30, 2023 - 06:00 AM EST / 2023.01.30 1100 UTC
Wind: from the W (260 degrees) at 16 MPH (14 KT):0
Visibility: 3 mile(s):0
Sky conditions: mostly cloudy
Weather: haze
Temperature: 57 F (14 C)
Dew Point: 39 F (4 C)
Relative Humidity: 50%
Pressure (altimeter): 29.85 in. Hg (1011 hPa)
ob: OJAI 301100Z 26014KT 5000 HZ BKN025 14/04 Q1011 NOSIG
cycle: 11

Station Type Date Time Source
OJAI TAF 2023/01/30 12:18 UTC NOAA

TAF TAF OJAI 301105Z 3012/3118 26012KT 5000 HZ SCT030 PROB30
TEMPO 3012/3118 26016KT 4000 -RA FEW030TCU SCT030 PROB40
TEMPO 3023/3104 26020KT 3000 RA FEW020TCU BKN020
TEMPO 3104/3118 27025KT 2000 TSRA BR FEW020CB SCT020 BKN025 PROB40 3110/3116 25032KT 1000 BLDU

Example: see airport list